sensor_id;sensor_type;location;lat;lon;timestamp;temperature;humidity
68764;DHT22;55754;52.038;5.566;2022-12-19T00:01:13;1.20;98.50
68764;DHT22;55754;52.038;5.566;2022-12-19T00:06:09;1.20;98.50
68764;DHT22;55754;52.038;5.566;2022-12-19T00:08:35;1.20;98.60
68764;DHT22;55754;52.038;5.566;2022-12-19T00:11:01;1.20;98.50
68764;DHT22;55754;52.038;5.566;2022-12-19T00:13:29;1.20;98.70
68764;DHT22;55754;52.038;5.566;2022-12-19T00:16:02;1.20;98.70
68764;DHT22;55754;52.038;5.566;2022-12-19T00:18:28;1.20;99.20
68764;DHT22;55754;52.038;5.566;2022-12-19T00:20:58;1.20;99.60
68764;DHT22;55754;52.038;5.566;2022-12-19T00:23:25;1.20;99.50
68764;DHT22;55754;52.038;5.566;2022-12-19T00:25:51;1.20;99.90
68764;DHT22;55754;52.038;5.566;2022-12-19T00:28:17;1.20;99.90
68764;DHT22;55754;52.038;5.566;2022-12-19T00:30:45;1.20;99.90
68764;DHT22;55754;52.038;5.566;2022-12-19T00:33:11;1.20;99.90
68764;DHT22;55754;52.038;5.566;2022-12-19T00:35:36;1.30;99.90
68764;DHT22;55754;52.038;5.566;2022-12-19T00:38:02;1.30;99.90
68764;DHT22;55754;52.038;5.566;2022-12-19T00:40:30;1.30;99.90
68764;DHT22;55754;52.038;5.566;2022-12-19T00:42:56;1.30;99.90
68764;DHT22;55754;52.038;5.566;2022-12-19T00:45:21;1.30;99.90
68764;DHT22;55754;52.038;5.566;2022-12-19T00:47:47;1.30;99.90
68764;DHT22;55754;52.038;5.566;2022-12-19T00:50:12;1.30;99.90
68764;DHT22;55754;52.038;5.566;2022-12-19T00:52:38;1.40;99.90
68764;DHT22;55754;52.038;5.566;2022-12-19T00:55:04;1.40;99.90
68764;DHT22;55754;52.038;5.566;2022-12-19T00:57:30;1.40;99.90
68764;DHT22;55754;52.038;5.566;2022-12-19T00:59:55;1.40;99.90
68764;DHT22;55754;52.038;5.566;2022-12-19T01:02:21;1.40;99.90
68764;DHT22;55754;52.038;5.566;2022-12-19T01:04:46;1.50;99.90
68764;DHT22;55754;52.038;5.566;2022-12-19T01:07:12;1.50;99.90
68764;DHT22;55754;52.038;5.566;2022-12-19T01:09:38;1.50;99.90
68764;DHT22;55754;52.038;5.566;2022-12-19T01:12:05;1.50;99.90
68764;DHT22;55754;52.038;5.566;2022-12-19T01:14:51;1.50;99.90
68764;DHT22;55754;52.038;5.566;2022-12-19T01:17:17;1.50;99.90
68764;DHT22;55754;52.038;5.566;2022-12-19T01:19:42;1.50;99.90
68764;DHT22;55754;52.038;5.566;2022-12-19T01:22:08;1.50;99.90
68764;DHT22;55754;52.038;5.566;2022-12-19T01:24:34;1.80;99.90
68764;DHT22;55754;52.038;5.566;2022-12-19T01:26:59;1.60;99.90
68764;DHT22;55754;52.038;5.566;2022-12-19T01:29:25;1.60;99.90
68764;DHT22;55754;52.038;5.566;2022-12-19T01:31:50;1.70;99.90
68764;DHT22;55754;52.038;5.566;2022-12-19T01:34:16;1.70;99.90
68764;DHT22;55754;52.038;5.566;2022-12-19T01:36:42;1.70;99.90
68764;DHT22;55754;52.038;5.566;2022-12-19T01:39:07;1.70;99.90
68764;DHT22;55754;52.038;5.566;2022-12-19T01:41:36;1.80;99.90
68764;DHT22;55754;52.038;5.566;2022-12-19T01:44:05;1.80;99.90
68764;DHT22;55754;52.038;5.566;2022-12-19T01:46:41;1.80;99.90
68764;DHT22;55754;52.038;5.566;2022-12-19T01:49:19;1.80;99.90
68764;DHT22;55754;52.038;5.566;2022-12-19T01:51:51;1.80;99.90
68764;DHT22;55754;52.038;5.566;2022-12-19T01:54:24;1.90;99.90
68764;DHT22;55754;52.038;5.566;2022-12-19T01:56:52;1.90;99.90
68764;DHT22;55754;52.038;5.566;2022-12-19T01:59:23;1.90;99.90
68764;DHT22;55754;52.038;5.566;2022-12-19T02:01:56;2.00;99.90
68764;DHT22;55754;52.038;5.566;2022-12-19T02:04:27;2.00;99.90
68764;DHT22;55754;52.038;5.566;2022-12-19T02:06:54;2.10;99.90
68764;DHT22;55754;52.038;5.566;2022-12-19T02:09:20;2.10;99.90
68764;DHT22;55754;52.038;5.566;2022-12-19T02:11:46;2.10;99.90
68764;DHT22;55754;52.038;5.566;2022-12-19T02:14:11;2.20;99.90
68764;DHT22;55754;52.038;5.566;2022-12-19T02:16:57;2.20;99.90
68764;DHT22;55754;52.038;5.566;2022-12-19T02:22:16;2.30;99.90
68764;DHT22;55754;52.038;5.566;2022-12-19T02:28:04;2.40;99.90
68764;DHT22;55754;52.038;5.566;2022-12-19T02:30:55;2.40;99.90
68764;DHT22;55754;52.038;5.566;2022-12-19T02:33:38;2.40;99.90
68764;DHT22;55754;52.038;5.566;2022-12-19T02:36:19;2.50;99.90
68764;DHT22;55754;52.038;5.566;2022-12-19T02:39:07;2.50;99.90
68764;DHT22;55754;52.038;5.566;2022-12-19T02:41:39;2.50;99.90
68764;DHT22;55754;52.038;5.566;2022-12-19T02:44:22;2.50;99.90
68764;DHT22;55754;52.038;5.566;2022-12-19T02:46:50;2.50;99.90
68764;DHT22;55754;52.038;5.566;2022-12-19T02:49:16;2.50;99.90
68764;DHT22;55754;52.038;5.566;2022-12-19T02:51:42;2.50;99.90
68764;DHT22;55754;52.038;5.566;2022-12-19T02:54:08;2.50;99.90
68764;DHT22;55754;52.038;5.566;2022-12-19T02:57:03;2.60;99.90
68764;DHT22;55754;52.038;5.566;2022-12-19T02:59:39;2.60;99.90
68764;DHT22;55754;52.038;5.566;2022-12-19T03:02:35;2.60;99.90
68764;DHT22;55754;52.038;5.566;2022-12-19T03:05:11;2.70;99.90
68764;DHT22;55754;52.038;5.566;2022-12-19T03:07:46;2.70;99.90
68764;DHT22;55754;52.038;5.566;2022-12-19T03:13:00;2.80;99.90
68764;DHT22;55754;52.038;5.566;2022-12-19T03:15:27;2.90;99.90
68764;DHT22;55754;52.038;5.566;2022-12-19T03:17:57;2.90;99.90
68764;DHT22;55754;52.038;5.566;2022-12-19T03:20:42;2.90;99.90
68764;DHT22;55754;52.038;5.566;2022-12-19T03:23:09;2.90;99.90
68764;DHT22;55754;52.038;5.566;2022-12-19T03:25:35;3.00;99.90
68764;DHT22;55754;52.038;5.566;2022-12-19T03:28:08;3.00;99.90
68764;DHT22;55754;52.038;5.566;2022-12-19T03:30:36;3.00;99.90
68764;DHT22;55754;52.038;5.566;2022-12-19T03:33:04;3.10;99.90
68764;DHT22;55754;52.038;5.566;2022-12-19T03:35:33;3.10;99.90
68764;DHT22;55754;52.038;5.566;2022-12-19T03:38:02;3.10;99.90
68764;DHT22;55754;52.038;5.566;2022-12-19T03:40:29;3.20;99.90
68764;DHT22;55754;52.038;5.566;2022-12-19T03:43:01;4.10;99.90
68764;DHT22;55754;52.038;5.566;2022-12-19T03:45:55;3.20;99.90
68764;DHT22;55754;52.038;5.566;2022-12-19T03:48:23;3.30;99.90
68764;DHT22;55754;52.038;5.566;2022-12-19T03:51:14;3.30;99.90
68764;DHT22;55754;52.038;5.566;2022-12-19T03:53:47;3.30;99.90
68764;DHT22;55754;52.038;5.566;2022-12-19T03:59:01;3.40;99.90
68764;DHT22;55754;52.038;5.566;2022-12-19T04:01:31;3.40;99.90
68764;DHT22;55754;52.038;5.566;2022-12-19T04:03:58;3.50;99.90
68764;DHT22;55754;52.038;5.566;2022-12-19T04:06:35;3.50;99.90
68764;DHT22;55754;52.038;5.566;2022-12-19T04:09:02;3.60;99.90
68764;DHT22;55754;52.038;5.566;2022-12-19T04:11:33;3.60;99.90
68764;DHT22;55754;52.038;5.566;2022-12-19T04:14:03;3.60;99.90
68764;DHT22;55754;52.038;5.566;2022-12-19T04:16:43;3.70;99.90
68764;DHT22;55754;52.038;5.566;2022-12-19T04:19:17;3.70;99.90
68764;DHT22;55754;52.038;5.566;2022-12-19T04:21:48;3.80;99.90
68764;DHT22;55754;52.038;5.566;2022-12-19T04:24:20;3.80;99.90
68764;DHT22;55754;52.038;5.566;2022-12-19T04:26:49;3.80;99.90
68764;DHT22;55754;52.038;5.566;2022-12-19T04:29:17;3.80;99.90
68764;DHT22;55754;52.038;5.566;2022-12-19T04:31:43;3.90;99.90
68764;DHT22;55754;52.038;5.566;2022-12-19T04:34:09;3.90;99.90
68764;DHT22;55754;52.038;5.566;2022-12-19T04:36:35;3.90;99.90
68764;DHT22;55754;52.038;5.566;2022-12-19T04:39:01;3.90;99.90
68764;DHT22;55754;52.038;5.566;2022-12-19T04:41:26;3.90;99.90
68764;DHT22;55754;52.038;5.566;2022-12-19T04:43:52;4.00;99.90
68764;DHT22;55754;52.038;5.566;2022-12-19T04:46:17;4.00;99.90
68764;DHT22;55754;52.038;5.566;2022-12-19T04:48:43;4.00;99.90
68764;DHT22;55754;52.038;5.566;2022-12-19T04:51:08;4.00;99.90
68764;DHT22;55754;52.038;5.566;2022-12-19T04:53:34;4.10;99.90
68764;DHT22;55754;52.038;5.566;2022-12-19T04:56:04;4.10;99.90
68764;DHT22;55754;52.038;5.566;2022-12-19T04:58:30;4.10;99.90
68764;DHT22;55754;52.038;5.566;2022-12-19T05:01:00;4.10;99.90
68764;DHT22;55754;52.038;5.566;2022-12-19T05:03:26;4.20;99.90
68764;DHT22;55754;52.038;5.566;2022-12-19T05:05:51;4.20;99.90
68764;DHT22;55754;52.038;5.566;2022-12-19T05:08:17;4.20;99.90
68764;DHT22;55754;52.038;5.566;2022-12-19T05:10:42;5.80;99.90
68764;DHT22;55754;52.038;5.566;2022-12-19T05:13:08;4.30;99.90
68764;DHT22;55754;52.038;5.566;2022-12-19T05:15:34;4.30;99.90
68764;DHT22;55754;52.038;5.566;2022-12-19T05:17:59;4.30;99.90
68764;DHT22;55754;52.038;5.566;2022-12-19T05:20:25;4.30;99.90
68764;DHT22;55754;52.038;5.566;2022-12-19T05:22:50;4.30;99.90
68764;DHT22;55754;52.038;5.566;2022-12-19T05:25:16;4.40;99.90
68764;DHT22;55754;52.038;5.566;2022-12-19T05:27:44;4.40;99.90
68764;DHT22;55754;52.038;5.566;2022-12-19T05:30:10;4.50;99.90
68764;DHT22;55754;52.038;5.566;2022-12-19T05:32:36;4.50;99.90
68764;DHT22;55754;52.038;5.566;2022-12-19T05:35:01;4.50;99.90
68764;DHT22;55754;52.038;5.566;2022-12-19T05:37:27;4.60;99.90
68764;DHT22;55754;52.038;5.566;2022-12-19T05:39:52;4.60;99.90
68764;DHT22;55754;52.038;5.566;2022-12-19T05:42:18;4.60;99.90
68764;DHT22;55754;52.038;5.566;2022-12-19T05:44:46;4.60;99.90
68764;DHT22;55754;52.038;5.566;2022-12-19T05:47:12;4.70;99.90
68764;DHT22;55754;52.038;5.566;2022-12-19T05:49:39;4.70;99.90
68764;DHT22;55754;52.038;5.566;2022-12-19T05:52:05;4.70;99.90
68764;DHT22;55754;52.038;5.566;2022-12-19T05:54:30;4.80;99.90
68764;DHT22;55754;52.038;5.566;2022-12-19T05:56:56;4.80;99.90
68764;DHT22;55754;52.038;5.566;2022-12-19T05:59:21;4.90;99.90
68764;DHT22;55754;52.038;5.566;2022-12-19T06:01:47;4.90;99.90
68764;DHT22;55754;52.038;5.566;2022-12-19T06:04:12;4.90;99.90
68764;DHT22;55754;52.038;5.566;2022-12-19T06:06:41;5.00;99.90
68764;DHT22;55754;52.038;5.566;2022-12-19T06:09:06;5.00;99.90
68764;DHT22;55754;52.038;5.566;2022-12-19T06:11:32;5.10;99.90
68764;DHT22;55754;52.038;5.566;2022-12-19T06:13:58;5.10;99.90
68764;DHT22;55754;52.038;5.566;2022-12-19T06:16:23;5.10;99.90
68764;DHT22;55754;52.038;5.566;2022-12-19T06:18:49;5.10;99.90
68764;DHT22;55754;52.038;5.566;2022-12-19T06:21:17;5.20;99.90
68764;DHT22;55754;52.038;5.566;2022-12-19T06:23:44;5.30;99.90
68764;DHT22;55754;52.038;5.566;2022-12-19T06:26:12;5.30;99.90
68764;DHT22;55754;52.038;5.566;2022-12-19T06:28:37;5.30;99.90
68764;DHT22;55754;52.038;5.566;2022-12-19T06:31:04;5.40;99.90
68764;DHT22;55754;52.038;5.566;2022-12-19T06:33:31;5.40;99.90
68764;DHT22;55754;52.038;5.566;2022-12-19T06:36:23;5.40;99.90
68764;DHT22;55754;52.038;5.566;2022-12-19T06:38:50;5.50;99.90
68764;DHT22;55754;52.038;5.566;2022-12-19T06:41:17;5.80;99.90
68764;DHT22;55754;52.038;5.566;2022-12-19T06:44:04;5.60;99.90
68764;DHT22;55754;52.038;5.566;2022-12-19T06:46:30;5.70;99.90
68764;DHT22;55754;52.038;5.566;2022-12-19T06:48:56;5.70;99.90
68764;DHT22;55754;52.038;5.566;2022-12-19T06:51:22;5.80;99.90
68764;DHT22;55754;52.038;5.566;2022-12-19T06:53:47;5.80;99.90
68764;DHT22;55754;52.038;5.566;2022-12-19T06:56:14;5.80;99.90
68764;DHT22;55754;52.038;5.566;2022-12-19T06:58:40;6.00;99.90
68764;DHT22;55754;52.038;5.566;2022-12-19T07:01:05;5.90;99.90
68764;DHT22;55754;52.038;5.566;2022-12-19T07:03:37;6.00;99.90
68764;DHT22;55754;52.038;5.566;2022-12-19T07:06:05;6.00;99.90
68764;DHT22;55754;52.038;5.566;2022-12-19T07:08:31;6.00;99.90
68764;DHT22;55754;52.038;5.566;2022-12-19T07:10:57;6.10;99.90
68764;DHT22;55754;52.038;5.566;2022-12-19T07:13:23;6.10;99.90
68764;DHT22;55754;52.038;5.566;2022-12-19T07:15:49;6.20;99.90
68764;DHT22;55754;52.038;5.566;2022-12-19T07:18:16;6.20;99.90
68764;DHT22;55754;52.038;5.566;2022-12-19T07:20:41;6.20;99.90
68764;DHT22;55754;52.038;5.566;2022-12-19T07:23:13;6.20;99.90
68764;DHT22;55754;52.038;5.566;2022-12-19T07:25:41;6.30;99.90
68764;DHT22;55754;52.038;5.566;2022-12-19T07:28:07;6.30;99.90
68764;DHT22;55754;52.038;5.566;2022-12-19T07:30:33;6.30;99.90
68764;DHT22;55754;52.038;5.566;2022-12-19T07:32:59;6.40;99.90
68764;DHT22;55754;52.038;5.566;2022-12-19T07:35:25;6.40;99.90
68764;DHT22;55754;52.038;5.566;2022-12-19T07:37:50;6.40;99.90
68764;DHT22;55754;52.038;5.566;2022-12-19T07:40:16;6.50;99.90
68764;DHT22;55754;52.038;5.566;2022-12-19T07:42:43;6.50;99.90
68764;DHT22;55754;52.038;5.566;2022-12-19T07:45:09;6.50;99.90
68764;DHT22;55754;52.038;5.566;2022-12-19T07:47:35;6.50;99.90
68764;DHT22;55754;52.038;5.566;2022-12-19T07:50:00;6.50;99.90
68764;DHT22;55754;52.038;5.566;2022-12-19T07:52:26;6.50;99.90
68764;DHT22;55754;52.038;5.566;2022-12-19T07:54:52;6.60;99.90
68764;DHT22;55754;52.038;5.566;2022-12-19T07:57:17;6.60;99.90
68764;DHT22;55754;52.038;5.566;2022-12-19T07:59:43;6.60;99.90
68764;DHT22;55754;52.038;5.566;2022-12-19T08:02:08;6.60;99.90
68764;DHT22;55754;52.038;5.566;2022-12-19T08:04:34;6.70;99.90
68764;DHT22;55754;52.038;5.566;2022-12-19T08:06:59;6.70;99.90
68764;DHT22;55754;52.038;5.566;2022-12-19T08:09:26;6.70;99.90
68764;DHT22;55754;52.038;5.566;2022-12-19T08:11:53;6.70;99.90
68764;DHT22;55754;52.038;5.566;2022-12-19T08:14:19;6.80;99.90
68764;DHT22;55754;52.038;5.566;2022-12-19T08:16:44;6.80;99.90
68764;DHT22;55754;52.038;5.566;2022-12-19T08:19:10;6.80;99.90
68764;DHT22;55754;52.038;5.566;2022-12-19T08:21:36;6.80;99.90
68764;DHT22;55754;52.038;5.566;2022-12-19T08:24:01;6.80;99.90
68764;DHT22;55754;52.038;5.566;2022-12-19T08:26:27;6.90;99.90
68764;DHT22;55754;52.038;5.566;2022-12-19T08:28:55;6.90;99.90
68764;DHT22;55754;52.038;5.566;2022-12-19T08:31:22;6.90;99.90
68764;DHT22;55754;52.038;5.566;2022-12-19T08:33:52;6.90;99.90
68764;DHT22;55754;52.038;5.566;2022-12-19T08:36:17;6.90;99.90
68764;DHT22;55754;52.038;5.566;2022-12-19T08:38:44;7.00;99.90
68764;DHT22;55754;52.038;5.566;2022-12-19T08:41:10;7.00;99.90
68764;DHT22;55754;52.038;5.566;2022-12-19T08:43:36;7.00;99.90
68764;DHT22;55754;52.038;5.566;2022-12-19T08:46:02;7.00;99.90
68764;DHT22;55754;52.038;5.566;2022-12-19T08:48:29;7.10;99.90
68764;DHT22;55754;52.038;5.566;2022-12-19T08:50:57;7.10;99.90
68764;DHT22;55754;52.038;5.566;2022-12-19T08:53:25;7.10;99.90
68764;DHT22;55754;52.038;5.566;2022-12-19T08:55:54;7.10;99.90
68764;DHT22;55754;52.038;5.566;2022-12-19T08:58:21;7.20;99.90
68764;DHT22;55754;52.038;5.566;2022-12-19T09:00:47;7.20;99.90
68764;DHT22;55754;52.038;5.566;2022-12-19T09:03:12;7.20;99.90
68764;DHT22;55754;52.038;5.566;2022-12-19T09:05:39;7.20;99.90
68764;DHT22;55754;52.038;5.566;2022-12-19T09:08:05;7.20;99.90
68764;DHT22;55754;52.038;5.566;2022-12-19T09:10:30;7.20;99.90
68764;DHT22;55754;52.038;5.566;2022-12-19T09:12:57;7.20;99.90
68764;DHT22;55754;52.038;5.566;2022-12-19T09:15:23;7.20;99.90
68764;DHT22;55754;52.038;5.566;2022-12-19T09:17:48;7.20;99.90
68764;DHT22;55754;52.038;5.566;2022-12-19T09:20:14;7.30;99.90
68764;DHT22;55754;52.038;5.566;2022-12-19T09:22:40;7.30;99.90
68764;DHT22;55754;52.038;5.566;2022-12-19T09:25:08;7.30;99.90
68764;DHT22;55754;52.038;5.566;2022-12-19T09:27:35;7.30;99.90
68764;DHT22;55754;52.038;5.566;2022-12-19T09:30:00;7.30;99.90
68764;DHT22;55754;52.038;5.566;2022-12-19T09:32:26;7.30;99.90
68764;DHT22;55754;52.038;5.566;2022-12-19T09:34:52;7.40;99.90
68764;DHT22;55754;52.038;5.566;2022-12-19T09:37:17;7.40;99.90
68764;DHT22;55754;52.038;5.566;2022-12-19T09:39:47;7.40;99.90
68764;DHT22;55754;52.038;5.566;2022-12-19T09:47:31;7.50;99.90
68764;DHT22;55754;52.038;5.566;2022-12-19T09:49:58;7.50;99.90
68764;DHT22;55754;52.038;5.566;2022-12-19T09:52:48;7.60;99.90
68764;DHT22;55754;52.038;5.566;2022-12-19T09:55:23;7.60;99.90
68764;DHT22;55754;52.038;5.566;2022-12-19T10:00:43;7.60;99.90
68764;DHT22;55754;52.038;5.566;2022-12-19T10:06:16;7.60;99.90
68764;DHT22;55754;52.038;5.566;2022-12-19T10:08:43;7.60;99.90
68764;DHT22;55754;52.038;5.566;2022-12-19T10:17:05;7.70;99.90
68764;DHT22;55754;52.038;5.566;2022-12-19T10:22:38;7.70;99.90
68764;DHT22;55754;52.038;5.566;2022-12-19T10:34:05;7.80;99.90
68764;DHT22;55754;52.038;5.566;2022-12-19T10:36:40;7.90;99.90
68764;DHT22;55754;52.038;5.566;2022-12-19T10:39:30;7.90;99.90
68764;DHT22;55754;52.038;5.566;2022-12-19T10:42:13;8.00;99.90
68764;DHT22;55754;52.038;5.566;2022-12-19T10:44:41;8.00;99.90
68764;DHT22;55754;52.038;5.566;2022-12-19T10:47:14;8.10;99.90
68764;DHT22;55754;52.038;5.566;2022-12-19T10:49:40;8.10;99.90
68764;DHT22;55754;52.038;5.566;2022-12-19T10:52:07;8.10;99.90
68764;DHT22;55754;52.038;5.566;2022-12-19T11:03:12;8.20;99.90
68764;DHT22;55754;52.038;5.566;2022-12-19T11:05:46;8.20;99.90
68764;DHT22;55754;52.038;5.566;2022-12-19T11:08:19;8.20;99.90
68764;DHT22;55754;52.038;5.566;2022-12-19T11:10:47;8.20;99.90
68764;DHT22;55754;52.038;5.566;2022-12-19T11:13:25;8.20;99.90
68764;DHT22;55754;52.038;5.566;2022-12-19T11:15:54;8.20;99.90
68764;DHT22;55754;52.038;5.566;2022-12-19T11:18:21;8.20;99.90
68764;DHT22;55754;52.038;5.566;2022-12-19T11:21:12;8.30;99.90
68764;DHT22;55754;52.038;5.566;2022-12-19T11:23:53;8.30;99.90
68764;DHT22;55754;52.038;5.566;2022-12-19T11:26:47;8.30;99.90
68764;DHT22;55754;52.038;5.566;2022-12-19T11:29:20;8.30;99.90
68764;DHT22;55754;52.038;5.566;2022-12-19T11:31:47;8.30;99.90
68764;DHT22;55754;52.038;5.566;2022-12-19T11:34:19;8.30;99.90
68764;DHT22;55754;52.038;5.566;2022-12-19T11:39:55;8.30;99.90
68764;DHT22;55754;52.038;5.566;2022-12-19T11:42:25;8.30;99.90
68764;DHT22;55754;52.038;5.566;2022-12-19T11:47:36;8.40;99.90
68764;DHT22;55754;52.038;5.566;2022-12-19T11:50:43;8.40;99.90
68764;DHT22;55754;52.038;5.566;2022-12-19T11:53:18;8.40;99.90
68764;DHT22;55754;52.038;5.566;2022-12-19T11:55:55;8.50;99.90
68764;DHT22;55754;52.038;5.566;2022-12-19T11:58:25;8.50;99.90
68764;DHT22;55754;52.038;5.566;2022-12-19T12:06:23;8.50;99.90
68764;DHT22;55754;52.038;5.566;2022-12-19T12:11:24;8.60;99.90
68764;DHT22;55754;52.038;5.566;2022-12-19T12:31:12;8.70;99.90
68764;DHT22;55754;52.038;5.566;2022-12-19T12:42:51;8.80;99.90
68764;DHT22;55754;52.038;5.566;2022-12-19T12:48:01;8.90;99.90
68764;DHT22;55754;52.038;5.566;2022-12-19T12:50:27;8.90;99.90
68764;DHT22;55754;52.038;5.566;2022-12-19T12:52:57;9.00;99.90
68764;DHT22;55754;52.038;5.566;2022-12-19T12:55:30;9.00;99.90
68764;DHT22;55754;52.038;5.566;2022-12-19T12:57:57;9.00;99.90
68764;DHT22;55754;52.038;5.566;2022-12-19T13:00:29;9.00;99.90
68764;DHT22;55754;52.038;5.566;2022-12-19T13:10:57;9.10;99.90
68764;DHT22;55754;52.038;5.566;2022-12-19T13:13:53;9.10;99.90
68764;DHT22;55754;52.038;5.566;2022-12-19T13:19:16;9.20;99.90
68764;DHT22;55754;52.038;5.566;2022-12-19T13:24:38;9.20;99.90
68764;DHT22;55754;52.038;5.566;2022-12-19T13:37:45;9.30;99.90
68764;DHT22;55754;52.038;5.566;2022-12-19T13:41:04;9.30;99.90
68764;DHT22;55754;52.038;5.566;2022-12-19T13:43:17;9.30;99.90
68764;DHT22;55754;52.038;5.566;2022-12-19T13:46:04;9.30;99.90
68764;DHT22;55754;52.038;5.566;2022-12-19T13:48:33;9.30;99.90
68764;DHT22;55754;52.038;5.566;2022-12-19T13:51:08;9.30;99.90
68764;DHT22;55754;52.038;5.566;2022-12-19T13:53:34;9.30;99.90
68764;DHT22;55754;52.038;5.566;2022-12-19T13:56:11;9.40;99.90
68764;DHT22;55754;52.038;5.566;2022-12-19T13:58:47;9.40;99.90
68764;DHT22;55754;52.038;5.566;2022-12-19T14:01:27;9.30;99.90
68764;DHT22;55754;52.038;5.566;2022-12-19T14:03:57;9.40;99.90
68764;DHT22;55754;52.038;5.566;2022-12-19T14:06:44;9.40;99.90
68764;DHT22;55754;52.038;5.566;2022-12-19T14:09:22;9.40;99.90
68764;DHT22;55754;52.038;5.566;2022-12-19T14:11:50;9.40;99.90
68764;DHT22;55754;52.038;5.566;2022-12-19T14:14:18;9.40;99.90
68764;DHT22;55754;52.038;5.566;2022-12-19T14:17:06;9.40;99.90
68764;DHT22;55754;52.038;5.566;2022-12-19T14:19:41;9.40;99.90
68764;DHT22;55754;52.038;5.566;2022-12-19T14:25:00;9.40;99.90
68764;DHT22;55754;52.038;5.566;2022-12-19T14:30:00;9.40;99.90
68764;DHT22;55754;52.038;5.566;2022-12-19T14:32:26;9.40;99.90
68764;DHT22;55754;52.038;5.566;2022-12-19T14:34:52;9.40;99.90
68764;DHT22;55754;52.038;5.566;2022-12-19T14:37:39;9.40;99.90
68764;DHT22;55754;52.038;5.566;2022-12-19T14:40:26;9.40;99.90
68764;DHT22;55754;52.038;5.566;2022-12-19T14:42:59;9.40;99.90
68764;DHT22;55754;52.038;5.566;2022-12-19T14:45:43;9.50;99.90
68764;DHT22;55754;52.038;5.566;2022-12-19T14:48:32;9.50;99.90
68764;DHT22;55754;52.038;5.566;2022-12-19T14:51:11;9.50;99.90
68764;DHT22;55754;52.038;5.566;2022-12-19T14:53:38;9.50;99.90
68764;DHT22;55754;52.038;5.566;2022-12-19T14:56:18;9.50;99.90
68764;DHT22;55754;52.038;5.566;2022-12-19T14:58:53;9.50;99.60
68764;DHT22;55754;52.038;5.566;2022-12-19T15:01:31;9.50;99.80
68764;DHT22;55754;52.038;5.566;2022-12-19T15:04:06;9.50;99.50
68764;DHT22;55754;52.038;5.566;2022-12-19T15:06:35;9.50;99.80
68764;DHT22;55754;52.038;5.566;2022-12-19T15:09:07;9.50;99.60
68764;DHT22;55754;52.038;5.566;2022-12-19T15:11:45;9.50;99.40
68764;DHT22;55754;52.038;5.566;2022-12-19T15:14:44;9.60;99.30
68764;DHT22;55754;52.038;5.566;2022-12-19T15:17:20;9.60;99.10
68764;DHT22;55754;52.038;5.566;2022-12-19T15:19:46;9.60;98.80
68764;DHT22;55754;52.038;5.566;2022-12-19T15:22:12;9.60;98.60
68764;DHT22;55754;52.038;5.566;2022-12-19T15:24:38;9.60;98.90
68764;DHT22;55754;52.038;5.566;2022-12-19T15:27:03;9.60;98.70
68764;DHT22;55754;52.038;5.566;2022-12-19T15:29:29;9.60;98.70
68764;DHT22;55754;52.038;5.566;2022-12-19T15:31:56;9.60;98.70
68764;DHT22;55754;52.038;5.566;2022-12-19T15:34:28;9.60;98.60
68764;DHT22;55754;52.038;5.566;2022-12-19T15:36:55;9.60;98.50
68764;DHT22;55754;52.038;5.566;2022-12-19T15:39:22;9.60;98.70
68764;DHT22;55754;52.038;5.566;2022-12-19T15:41:51;9.60;98.30
68764;DHT22;55754;52.038;5.566;2022-12-19T15:46:47;9.60;98.40
68764;DHT22;55754;52.038;5.566;2022-12-19T15:49:14;9.60;98.60
68764;DHT22;55754;52.038;5.566;2022-12-19T15:51:40;9.60;98.40
68764;DHT22;55754;52.038;5.566;2022-12-19T15:54:06;9.60;98.50
68764;DHT22;55754;52.038;5.566;2022-12-19T15:56:36;9.70;98.30
68764;DHT22;55754;52.038;5.566;2022-12-19T15:59:02;9.60;98.20
68764;DHT22;55754;52.038;5.566;2022-12-19T16:01:29;9.60;98.10
68764;DHT22;55754;52.038;5.566;2022-12-19T16:03:58;9.70;98.20
68764;DHT22;55754;52.038;5.566;2022-12-19T16:06:24;9.70;98.30
68764;DHT22;55754;52.038;5.566;2022-12-19T16:08:52;9.70;98.00
68764;DHT22;55754;52.038;5.566;2022-12-19T16:11:21;9.70;98.00
68764;DHT22;55754;52.038;5.566;2022-12-19T16:13:54;9.70;98.20
68764;DHT22;55754;52.038;5.566;2022-12-19T16:16:21;9.70;98.10
68764;DHT22;55754;52.038;5.566;2022-12-19T16:18:47;9.60;98.10
68764;DHT22;55754;52.038;5.566;2022-12-19T16:21:22;9.70;98.10
68764;DHT22;55754;52.038;5.566;2022-12-19T16:23:48;9.70;97.90
68764;DHT22;55754;52.038;5.566;2022-12-19T16:26:27;9.70;97.80
68764;DHT22;55754;52.038;5.566;2022-12-19T16:28:54;9.70;97.90
68764;DHT22;55754;52.038;5.566;2022-12-19T16:31:23;9.70;97.70
68764;DHT22;55754;52.038;5.566;2022-12-19T16:33:49;9.70;97.60
68764;DHT22;55754;52.038;5.566;2022-12-19T16:36:14;9.70;97.50
68764;DHT22;55754;52.038;5.566;2022-12-19T16:38:40;9.80;97.50
68764;DHT22;55754;52.038;5.566;2022-12-19T16:41:13;9.80;97.50
68764;DHT22;55754;52.038;5.566;2022-12-19T16:43:41;9.70;97.50
68764;DHT22;55754;52.038;5.566;2022-12-19T16:46:15;9.70;97.50
68764;DHT22;55754;52.038;5.566;2022-12-19T16:48:42;9.80;97.50
68764;DHT22;55754;52.038;5.566;2022-12-19T16:51:22;9.80;97.30
68764;DHT22;55754;52.038;5.566;2022-12-19T16:53:50;9.80;97.40
68764;DHT22;55754;52.038;5.566;2022-12-19T16:59:37;9.80;97.10
68764;DHT22;55754;52.038;5.566;2022-12-19T17:02:45;9.90;97.10
68764;DHT22;55754;52.038;5.566;2022-12-19T17:05:14;9.80;96.90
68764;DHT22;55754;52.038;5.566;2022-12-19T17:07:40;10.30;97.20
68764;DHT22;55754;52.038;5.566;2022-12-19T17:10:06;9.80;97.10
68764;DHT22;55754;52.038;5.566;2022-12-19T17:12:32;9.90;97.00
68764;DHT22;55754;52.038;5.566;2022-12-19T17:14:58;9.90;97.00
68764;DHT22;55754;52.038;5.566;2022-12-19T17:17:33;9.80;97.00
68764;DHT22;55754;52.038;5.566;2022-12-19T17:19:58;9.80;96.80
68764;DHT22;55754;52.038;5.566;2022-12-19T17:22:24;9.90;96.90
68764;DHT22;55754;52.038;5.566;2022-12-19T17:24:50;9.90;96.70
68764;DHT22;55754;52.038;5.566;2022-12-19T17:27:15;9.90;96.70
68764;DHT22;55754;52.038;5.566;2022-12-19T17:29:43;9.90;96.50
68764;DHT22;55754;52.038;5.566;2022-12-19T17:32:16;9.90;96.50
68764;DHT22;55754;52.038;5.566;2022-12-19T17:34:42;9.90;96.40
68764;DHT22;55754;52.038;5.566;2022-12-19T17:37:14;9.90;96.30
68764;DHT22;55754;52.038;5.566;2022-12-19T17:39:40;9.90;96.30
68764;DHT22;55754;52.038;5.566;2022-12-19T17:42:17;9.90;96.40
68764;DHT22;55754;52.038;5.566;2022-12-19T17:44:44;9.90;96.20
68764;DHT22;55754;52.038;5.566;2022-12-19T17:47:14;10.00;96.30
68764;DHT22;55754;52.038;5.566;2022-12-19T17:49:41;10.00;96.10
68764;DHT22;55754;52.038;5.566;2022-12-19T17:52:12;10.00;96.10
68764;DHT22;55754;52.038;5.566;2022-12-19T17:54:38;10.00;96.00
68764;DHT22;55754;52.038;5.566;2022-12-19T17:57:04;10.00;95.80
68764;DHT22;55754;52.038;5.566;2022-12-19T17:59:30;10.00;96.00
68764;DHT22;55754;52.038;5.566;2022-12-19T18:01:55;10.00;95.90
68764;DHT22;55754;52.038;5.566;2022-12-19T18:04:22;10.00;95.80
68764;DHT22;55754;52.038;5.566;2022-12-19T18:06:48;10.00;95.80
68764;DHT22;55754;52.038;5.566;2022-12-19T18:09:23;10.00;95.70
68764;DHT22;55754;52.038;5.566;2022-12-19T18:11:50;10.10;95.40